sensor_id;sensor_type;location;lat;lon;timestamp;P1;durP1;ratioP1;P2;durP2;ratioP2
25481;SDS011;13395;50.752;4.268;2023-02-28T00:00:39;12.63;;;8.23;;
25481;SDS011;13395;50.752;4.268;2023-02-28T00:03:04;14.02;;;8.35;;
25481;SDS011;13395;50.752;4.268;2023-02-28T00:05:30;15.70;;;7.50;;
25481;SDS011;13395;50.752;4.268;2023-02-28T00:07:56;15.32;;;8.63;;
25481;SDS011;13395;50.752;4.268;2023-02-28T00:10:26;12.25;;;8.43;;
25481;SDS011;13395;50.752;4.268;2023-02-28T00:12:54;10.93;;;7.75;;
25481;SDS011;13395;50.752;4.268;2023-02-28T00:15:22;13.40;;;8.93;;
25481;SDS011;13395;50.752;4.268;2023-02-28T00:17:48;14.48;;;9.13;;
25481;SDS011;13395;50.752;4.268;2023-02-28T00:20:14;15.48;;;8.35;;
25481;SDS011;13395;50.752;4.268;2023-02-28T00:22:45;15.18;;;8.60;;
25481;SDS011;13395;50.752;4.268;2023-02-28T00:25:13;18.00;;;8.27;;
25481;SDS011;13395;50.752;4.268;2023-02-28T00:27:40;15.98;;;9.35;;
25481;SDS011;13395;50.752;4.268;2023-02-28T00:30:07;15.70;;;9.23;;
25481;SDS011;13395;50.752;4.268;2023-02-28T00:32:35;14.77;;;9.18;;
25481;SDS011;13395;50.752;4.268;2023-02-28T00:35:03;12.38;;;8.88;;
25481;SDS011;13395;50.752;4.268;2023-02-28T00:37:29;11.73;;;7.97;;
25481;SDS011;13395;50.752;4.268;2023-02-28T00:39:55;18.40;;;9.93;;
25481;SDS011;13395;50.752;4.268;2023-02-28T00:42:21;12.05;;;8.07;;
25481;SDS011;13395;50.752;4.268;2023-02-28T00:44:47;20.45;;;8.82;;
25481;SDS011;13395;50.752;4.268;2023-02-28T00:47:12;15.68;;;8.80;;
25481;SDS011;13395;50.752;4.268;2023-02-28T00:49:38;14.75;;;8.77;;
25481;SDS011;13395;50.752;4.268;2023-02-28T00:52:03;13.65;;;8.35;;
25481;SDS011;13395;50.752;4.268;2023-02-28T00:54:29;17.83;;;8.80;;
25481;SDS011;13395;50.752;4.268;2023-02-28T00:56:55;20.67;;;9.38;;
25481;SDS011;13395;50.752;4.268;2023-02-28T00:59:20;17.73;;;8.77;;
25481;SDS011;13395;50.752;4.268;2023-02-28T01:01:46;20.33;;;9.95;;
25481;SDS011;13395;50.752;4.268;2023-02-28T01:04:12;16.85;;;9.65;;
25481;SDS011;13395;50.752;4.268;2023-02-28T01:06:38;17.30;;;8.65;;
25481;SDS011;13395;50.752;4.268;2023-02-28T01:09:04;15.18;;;8.13;;
25481;SDS011;13395;50.752;4.268;2023-02-28T01:11:32;12.27;;;7.78;;
25481;SDS011;13395;50.752;4.268;2023-02-28T01:13:58;12.13;;;7.65;;
25481;SDS011;13395;50.752;4.268;2023-02-28T01:16:24;11.55;;;7.85;;
25481;SDS011;13395;50.752;4.268;2023-02-28T01:18:50;14.40;;;8.38;;
25481;SDS011;13395;50.752;4.268;2023-02-28T01:21:17;11.60;;;7.07;;
25481;SDS011;13395;50.752;4.268;2023-02-28T01:23:44;12.18;;;6.90;;
25481;SDS011;13395;50.752;4.268;2023-02-28T01:26:11;13.50;;;8.27;;
25481;SDS011;13395;50.752;4.268;2023-02-28T01:28:40;11.90;;;7.93;;
25481;SDS011;13395;50.752;4.268;2023-02-28T01:31:06;10.00;;;7.22;;
25481;SDS011;13395;50.752;4.268;2023-02-28T01:33:33;19.75;;;8.35;;
25481;SDS011;13395;50.752;4.268;2023-02-28T01:38:26;12.68;;;7.80;;
25481;SDS011;13395;50.752;4.268;2023-02-28T01:40:52;11.90;;;7.50;;
25481;SDS011;13395;50.752;4.268;2023-02-28T01:43:28;18.13;;;8.48;;
25481;SDS011;13395;50.752;4.268;2023-02-28T01:46:14;11.93;;;7.72;;
25481;SDS011;13395;50.752;4.268;2023-02-28T01:48:42;12.70;;;7.95;;
25481;SDS011;13395;50.752;4.268;2023-02-28T01:51:15;11.32;;;7.38;;
25481;SDS011;13395;50.752;4.268;2023-02-28T01:53:45;10.60;;;7.20;;
25481;SDS011;13395;50.752;4.268;2023-02-28T01:56:17;10.93;;;6.82;;
25481;SDS011;13395;50.752;4.268;2023-02-28T01:58:48;9.88;;;7.10;;
25481;SDS011;13395;50.752;4.268;2023-02-28T02:01:18;13.07;;;7.40;;
25481;SDS011;13395;50.752;4.268;2023-02-28T02:03:54;20.98;;;7.30;;
25481;SDS011;13395;50.752;4.268;2023-02-28T02:06:23;9.38;;;7.28;;
25481;SDS011;13395;50.752;4.268;2023-02-28T02:08:54;11.85;;;7.15;;
25481;SDS011;13395;50.752;4.268;2023-02-28T02:11:20;15.02;;;8.18;;
25481;SDS011;13395;50.752;4.268;2023-02-28T02:17:14;15.30;;;7.40;;
25481;SDS011;13395;50.752;4.268;2023-02-28T02:36:13;11.32;;;7.50;;
25481;SDS011;13395;50.752;4.268;2023-02-28T02:38:51;12.02;;;8.00;;
25481;SDS011;13395;50.752;4.268;2023-02-28T02:41:24;10.50;;;7.90;;
25481;SDS011;13395;50.752;4.268;2023-02-28T02:43:57;13.35;;;7.93;;
25481;SDS011;13395;50.752;4.268;2023-02-28T02:46:42;12.75;;;7.63;;
25481;SDS011;13395;50.752;4.268;2023-02-28T02:49:11;15.27;;;8.18;;
25481;SDS011;13395;50.752;4.268;2023-02-28T02:51:41;13.18;;;8.32;;
25481;SDS011;13395;50.752;4.268;2023-02-28T02:54:08;12.77;;;8.60;;
25481;SDS011;13395;50.752;4.268;2023-02-28T02:56:41;15.82;;;9.18;;
25481;SDS011;13395;50.752;4.268;2023-02-28T02:59:09;13.30;;;8.38;;
25481;SDS011;13395;50.752;4.268;2023-02-28T03:01:38;15.07;;;8.45;;
25481;SDS011;13395;50.752;4.268;2023-02-28T03:04:07;13.15;;;9.20;;
25481;SDS011;13395;50.752;4.268;2023-02-28T03:06:36;14.55;;;9.13;;
25481;SDS011;13395;50.752;4.268;2023-02-28T03:09:01;12.73;;;9.48;;
25481;SDS011;13395;50.752;4.268;2023-02-28T03:11:29;12.13;;;8.70;;
25481;SDS011;13395;50.752;4.268;2023-02-28T03:16:40;21.98;;;9.23;;
25481;SDS011;13395;50.752;4.268;2023-02-28T03:22:57;14.55;;;8.90;;
25481;SDS011;13395;50.752;4.268;2023-02-28T03:29:02;14.10;;;8.27;;
25481;SDS011;13395;50.752;4.268;2023-02-28T03:34:14;15.48;;;8.98;;
25481;SDS011;13395;50.752;4.268;2023-02-28T03:36:46;19.08;;;10.63;;
25481;SDS011;13395;50.752;4.268;2023-02-28T03:39:17;17.58;;;9.65;;
25481;SDS011;13395;50.752;4.268;2023-02-28T03:42:09;15.15;;;10.82;;
25481;SDS011;13395;50.752;4.268;2023-02-28T03:44:40;16.30;;;10.00;;
25481;SDS011;13395;50.752;4.268;2023-02-28T03:47:16;20.55;;;10.68;;
25481;SDS011;13395;50.752;4.268;2023-02-28T03:52:19;18.95;;;10.50;;
25481;SDS011;13395;50.752;4.268;2023-02-28T03:54:49;14.88;;;10.15;;
25481;SDS011;13395;50.752;4.268;2023-02-28T04:00:25;16.08;;;10.18;;
25481;SDS011;13395;50.752;4.268;2023-02-28T04:02:55;20.00;;;10.77;;
25481;SDS011;13395;50.752;4.268;2023-02-28T04:05:21;20.75;;;10.05;;
25481;SDS011;13395;50.752;4.268;2023-02-28T04:07:48;18.02;;;10.63;;
25481;SDS011;13395;50.752;4.268;2023-02-28T04:10:14;21.60;;;10.57;;
25481;SDS011;13395;50.752;4.268;2023-02-28T04:12:40;18.50;;;10.85;;
25481;SDS011;13395;50.752;4.268;2023-02-28T04:15:06;18.67;;;11.00;;
25481;SDS011;13395;50.752;4.268;2023-02-28T04:17:32;27.75;;;11.02;;
25481;SDS011;13395;50.752;4.268;2023-02-28T04:19:58;18.38;;;10.48;;
25481;SDS011;13395;50.752;4.268;2023-02-28T04:22:23;20.02;;;12.05;;
25481;SDS011;13395;50.752;4.268;2023-02-28T04:24:52;16.73;;;10.55;;
25481;SDS011;13395;50.752;4.268;2023-02-28T04:27:19;18.98;;;11.13;;
25481;SDS011;13395;50.752;4.268;2023-02-28T04:29:45;19.25;;;11.35;;
25481;SDS011;13395;50.752;4.268;2023-02-28T04:32:11;18.63;;;10.88;;
25481;SDS011;13395;50.752;4.268;2023-02-28T04:34:37;19.40;;;11.07;;
25481;SDS011;13395;50.752;4.268;2023-02-28T04:37:03;17.77;;;11.80;;
25481;SDS011;13395;50.752;4.268;2023-02-28T04:39:29;25.83;;;13.13;;
25481;SDS011;13395;50.752;4.268;2023-02-28T04:41:54;23.88;;;11.77;;
25481;SDS011;13395;50.752;4.268;2023-02-28T04:44:20;20.33;;;11.13;;
25481;SDS011;13395;50.752;4.268;2023-02-28T04:46:47;17.13;;;10.65;;
25481;SDS011;13395;50.752;4.268;2023-02-28T04:49:13;19.98;;;11.93;;
25481;SDS011;13395;50.752;4.268;2023-02-28T04:51:40;22.52;;;11.80;;
25481;SDS011;13395;50.752;4.268;2023-02-28T04:54:06;19.67;;;13.02;;
25481;SDS011;13395;50.752;4.268;2023-02-28T04:56:33;22.98;;;12.63;;
25481;SDS011;13395;50.752;4.268;2023-02-28T04:58:58;21.58;;;11.90;;
25481;SDS011;13395;50.752;4.268;2023-02-28T05:01:25;22.40;;;11.68;;
25481;SDS011;13395;50.752;4.268;2023-02-28T05:03:53;22.67;;;13.40;;
25481;SDS011;13395;50.752;4.268;2023-02-28T05:06:22;20.33;;;11.10;;
25481;SDS011;13395;50.752;4.268;2023-02-28T05:08:50;21.38;;;12.02;;
25481;SDS011;13395;50.752;4.268;2023-02-28T05:13:44;17.73;;;11.95;;
25481;SDS011;13395;50.752;4.268;2023-02-28T05:16:10;18.70;;;12.40;;
25481;SDS011;13395;50.752;4.268;2023-02-28T05:18:36;19.95;;;12.02;;
25481;SDS011;13395;50.752;4.268;2023-02-28T05:21:01;21.02;;;12.93;;
25481;SDS011;13395;50.752;4.268;2023-02-28T05:23:28;23.38;;;12.52;;
25481;SDS011;13395;50.752;4.268;2023-02-28T05:25:53;23.00;;;13.20;;
25481;SDS011;13395;50.752;4.268;2023-02-28T05:28:20;24.38;;;11.73;;
25481;SDS011;13395;50.752;4.268;2023-02-28T05:30:46;25.98;;;12.77;;
25481;SDS011;13395;50.752;4.268;2023-02-28T05:33:12;22.67;;;12.45;;
25481;SDS011;13395;50.752;4.268;2023-02-28T05:35:41;26.52;;;11.65;;
25481;SDS011;13395;50.752;4.268;2023-02-28T05:38:07;24.08;;;12.77;;
25481;SDS011;13395;50.752;4.268;2023-02-28T05:40:33;20.38;;;12.43;;
25481;SDS011;13395;50.752;4.268;2023-02-28T05:42:59;27.85;;;12.80;;
25481;SDS011;13395;50.752;4.268;2023-02-28T05:45:25;22.33;;;12.43;;
25481;SDS011;13395;50.752;4.268;2023-02-28T05:47:54;24.55;;;12.95;;
25481;SDS011;13395;50.752;4.268;2023-02-28T05:50:20;22.75;;;13.80;;
25481;SDS011;13395;50.752;4.268;2023-02-28T05:52:51;19.67;;;13.43;;
25481;SDS011;13395;50.752;4.268;2023-02-28T05:55:17;27.23;;;13.00;;
25481;SDS011;13395;50.752;4.268;2023-02-28T05:57:43;25.45;;;13.13;;
25481;SDS011;13395;50.752;4.268;2023-02-28T06:00:09;22.10;;;13.05;;
25481;SDS011;13395;50.752;4.268;2023-02-28T06:02:36;23.60;;;12.63;;
25481;SDS011;13395;50.752;4.268;2023-02-28T06:05:03;24.85;;;12.88;;
25481;SDS011;13395;50.752;4.268;2023-02-28T06:07:29;22.17;;;12.95;;
25481;SDS011;13395;50.752;4.268;2023-02-28T06:09:54;21.60;;;13.23;;
25481;SDS011;13395;50.752;4.268;2023-02-28T06:12:20;22.67;;;12.68;;
25481;SDS011;13395;50.752;4.268;2023-02-28T06:14:45;18.88;;;12.43;;
25481;SDS011;13395;50.752;4.268;2023-02-28T06:17:11;21.27;;;13.20;;
25481;SDS011;13395;50.752;4.268;2023-02-28T06:19:37;24.20;;;12.43;;
25481;SDS011;13395;50.752;4.268;2023-02-28T06:22:06;22.02;;;13.18;;
25481;SDS011;13395;50.752;4.268;2023-02-28T06:24:32;23.83;;;14.57;;
25481;SDS011;13395;50.752;4.268;2023-02-28T06:26:57;21.23;;;13.15;;
25481;SDS011;13395;50.752;4.268;2023-02-28T06:29:29;27.70;;;13.82;;
25481;SDS011;13395;50.752;4.268;2023-02-28T06:31:56;24.25;;;13.35;;
25481;SDS011;13395;50.752;4.268;2023-02-28T06:34:21;24.83;;;12.90;;
25481;SDS011;13395;50.752;4.268;2023-02-28T06:36:49;27.23;;;13.75;;
25481;SDS011;13395;50.752;4.268;2023-02-28T06:39:16;21.23;;;12.95;;
25481;SDS011;13395;50.752;4.268;2023-02-28T06:41:42;31.83;;;14.48;;
25481;SDS011;13395;50.752;4.268;2023-02-28T06:44:14;23.73;;;13.95;;
25481;SDS011;13395;50.752;4.268;2023-02-28T06:46:41;29.55;;;12.88;;
25481;SDS011;13395;50.752;4.268;2023-02-28T06:49:08;22.05;;;12.95;;
25481;SDS011;13395;50.752;4.268;2023-02-28T06:51:35;20.05;;;13.20;;
25481;SDS011;13395;50.752;4.268;2023-02-28T06:54:04;28.55;;;13.80;;
25481;SDS011;13395;50.752;4.268;2023-02-28T06:56:30;19.23;;;13.65;;
25481;SDS011;13395;50.752;4.268;2023-02-28T06:58:55;23.42;;;12.90;;
25481;SDS011;13395;50.752;4.268;2023-02-28T07:01:21;17.73;;;13.27;;
25481;SDS011;13395;50.752;4.268;2023-02-28T07:03:48;17.73;;;13.35;;
25481;SDS011;13395;50.752;4.268;2023-02-28T07:06:17;19.85;;;11.73;;
25481;SDS011;13395;50.752;4.268;2023-02-28T07:08:43;22.05;;;11.93;;
25481;SDS011;13395;50.752;4.268;2023-02-28T07:11:09;18.15;;;12.35;;
25481;SDS011;13395;50.752;4.268;2023-02-28T07:13:35;19.52;;;12.25;;
25481;SDS011;13395;50.752;4.268;2023-02-28T07:16:02;18.60;;;12.38;;
25481;SDS011;13395;50.752;4.268;2023-02-28T07:18:30;22.13;;;12.65;;
25481;SDS011;13395;50.752;4.268;2023-02-28T07:20:55;22.45;;;12.15;;
25481;SDS011;13395;50.752;4.268;2023-02-28T07:23:21;20.42;;;12.45;;
25481;SDS011;13395;50.752;4.268;2023-02-28T07:25:47;19.08;;;11.68;;
25481;SDS011;13395;50.752;4.268;2023-02-28T07:28:13;18.70;;;11.52;;
25481;SDS011;13395;50.752;4.268;2023-02-28T07:30:40;17.10;;;10.13;;
25481;SDS011;13395;50.752;4.268;2023-02-28T07:33:06;15.57;;;10.73;;
25481;SDS011;13395;50.752;4.268;2023-02-28T07:35:32;13.68;;;10.23;;
25481;SDS011;13395;50.752;4.268;2023-02-28T07:37:57;17.23;;;8.77;;
25481;SDS011;13395;50.752;4.268;2023-02-28T07:40:24;14.30;;;9.85;;
25481;SDS011;13395;50.752;4.268;2023-02-28T07:42:50;16.08;;;9.88;;
25481;SDS011;13395;50.752;4.268;2023-02-28T07:45:15;15.18;;;9.50;;
25481;SDS011;13395;50.752;4.268;2023-02-28T07:47:42;11.75;;;8.27;;
25481;SDS011;13395;50.752;4.268;2023-02-28T07:50:10;13.18;;;8.32;;
25481;SDS011;13395;50.752;4.268;2023-02-28T07:52:37;15.15;;;8.20;;
25481;SDS011;13395;50.752;4.268;2023-02-28T07:55:04;11.93;;;7.95;;
25481;SDS011;13395;50.752;4.268;2023-02-28T07:57:30;12.95;;;7.90;;
25481;SDS011;13395;50.752;4.268;2023-02-28T07:59:56;11.38;;;7.32;;
25481;SDS011;13395;50.752;4.268;2023-02-28T08:02:22;13.20;;;7.55;;
25481;SDS011;13395;50.752;4.268;2023-02-28T08:04:48;10.95;;;7.70;;
25481;SDS011;13395;50.752;4.268;2023-02-28T08:07:14;11.90;;;6.13;;
25481;SDS011;13395;50.752;4.268;2023-02-28T08:09:40;11.35;;;5.47;;
25481;SDS011;13395;50.752;4.268;2023-02-28T08:12:07;11.63;;;6.25;;
25481;SDS011;13395;50.752;4.268;2023-02-28T08:14:33;6.22;;;4.80;;
25481;SDS011;13395;50.752;4.268;2023-02-28T08:16:59;7.00;;;5.45;;
25481;SDS011;13395;50.752;4.268;2023-02-28T08:19:25;10.88;;;4.50;;
25481;SDS011;13395;50.752;4.268;2023-02-28T08:21:51;10.18;;;4.28;;
25481;SDS011;13395;50.752;4.268;2023-02-28T08:24:17;8.50;;;4.68;;
25481;SDS011;13395;50.752;4.268;2023-02-28T08:26:42;7.38;;;4.38;;
25481;SDS011;13395;50.752;4.268;2023-02-28T08:29:08;6.38;;;4.15;;
25481;SDS011;13395;50.752;4.268;2023-02-28T08:31:33;5.88;;;3.55;;
25481;SDS011;13395;50.752;4.268;2023-02-28T08:34:00;7.22;;;4.65;;
25481;SDS011;13395;50.752;4.268;2023-02-28T08:36:33;6.47;;;4.10;;
25481;SDS011;13395;50.752;4.268;2023-02-28T08:38:59;7.45;;;4.95;;
25481;SDS011;13395;50.752;4.268;2023-02-28T08:41:25;8.13;;;4.80;;
25481;SDS011;13395;50.752;4.268;2023-02-28T08:43:51;5.90;;;4.28;;
25481;SDS011;13395;50.752;4.268;2023-02-28T08:46:18;6.22;;;3.88;;
25481;SDS011;13395;50.752;4.268;2023-02-28T08:48:44;8.45;;;4.32;;
25481;SDS011;13395;50.752;4.268;2023-02-28T08:51:15;4.90;;;3.60;;
25481;SDS011;13395;50.752;4.268;2023-02-28T08:53:43;5.55;;;4.03;;
25481;SDS011;13395;50.752;4.268;2023-02-28T08:56:11;5.72;;;4.07;;
25481;SDS011;13395;50.752;4.268;2023-02-28T08:58:38;5.55;;;4.13;;
25481;SDS011;13395;50.752;4.268;2023-02-28T09:01:16;7.50;;;3.70;;
25481;SDS011;13395;50.752;4.268;2023-02-28T09:03:43;9.15;;;3.90;;
25481;SDS011;13395;50.752;4.268;2023-02-28T09:06:11;7.20;;;3.97;;
25481;SDS011;13395;50.752;4.268;2023-02-28T09:08:37;7.45;;;3.60;;
25481;SDS011;13395;50.752;4.268;2023-02-28T09:11:04;5.28;;;4.00;;
25481;SDS011;13395;50.752;4.268;2023-02-28T09:13:30;6.10;;;3.75;;
25481;SDS011;13395;50.752;4.268;2023-02-28T09:15:57;6.13;;;3.50;;
25481;SDS011;13395;50.752;4.268;2023-02-28T09:18:24;5.53;;;3.40;;
25481;SDS011;13395;50.752;4.268;2023-02-28T09:20:51;4.35;;;2.97;;
25481;SDS011;13395;50.752;4.268;2023-02-28T09:23:17;5.28;;;3.25;;
25481;SDS011;13395;50.752;4.268;2023-02-28T09:25:52;3.63;;;2.20;;
25481;SDS011;13395;50.752;4.268;2023-02-28T09:28:20;4.25;;;2.40;;
25481;SDS011;13395;50.752;4.268;2023-02-28T09:30:48;3.60;;;2.45;;
25481;SDS011;13395;50.752;4.268;2023-02-28T09:33:16;3.20;;;2.42;;
25481;SDS011;13395;50.752;4.268;2023-02-28T09:35:43;4.57;;;3.17;;
25481;SDS011;13395;50.752;4.268;2023-02-28T09:38:09;3.97;;;2.40;;
25481;SDS011;13395;50.752;4.268;2023-02-28T09:40:37;4.47;;;2.63;;
25481;SDS011;13395;50.752;4.268;2023-02-28T09:43:29;5.45;;;2.78;;
25481;SDS011;13395;50.752;4.268;2023-02-28T09:46:05;4.60;;;2.38;;
25481;SDS011;13395;50.752;4.268;2023-02-28T09:48:44;2.80;;;2.00;;
25481;SDS011;13395;50.752;4.268;2023-02-28T09:54:03;2.75;;;1.92;;
25481;SDS011;13395;50.752;4.268;2023-02-28T10:01:56;3.90;;;2.03;;
25481;SDS011;13395;50.752;4.268;2023-02-28T10:04:49;3.97;;;2.40;;
25481;SDS011;13395;50.752;4.268;2023-02-28T10:10:28;3.47;;;2.13;;
25481;SDS011;13395;50.752;4.268;2023-02-28T10:13:00;5.85;;;2.13;;
25481;SDS011;13395;50.752;4.268;2023-02-28T10:15:30;4.00;;;1.92;;
25481;SDS011;13395;50.752;4.268;2023-02-28T10:18:03;2.78;;;2.03;;
25481;SDS011;13395;50.752;4.268;2023-02-28T10:20:35;2.85;;;1.83;;
25481;SDS011;13395;50.752;4.268;2023-02-28T10:23:09;3.30;;;1.90;;
25481;SDS011;13395;50.752;4.268;2023-02-28T10:25:46;2.45;;;1.90;;
25481;SDS011;13395;50.752;4.268;2023-02-28T10:28:33;3.00;;;2.30;;
25481;SDS011;13395;50.752;4.268;2023-02-28T10:30:59;3.53;;;2.10;;
25481;SDS011;13395;50.752;4.268;2023-02-28T10:35:55;4.00;;;2.42;;
25481;SDS011;13395;50.752;4.268;2023-02-28T10:40:49;8.75;;;2.30;;
25481;SDS011;13395;50.752;4.268;2023-02-28T10:48:38;3.15;;;2.28;;
25481;SDS011;13395;50.752;4.268;2023-02-28T10:51:08;3.97;;;2.22;;
25481;SDS011;13395;50.752;4.268;2023-02-28T11:04:19;2.95;;;1.55;;
25481;SDS011;13395;50.752;4.268;2023-02-28T11:07:01;2.70;;;1.92;;
25481;SDS011;13395;50.752;4.268;2023-02-28T11:09:32;2.50;;;1.92;;
25481;SDS011;13395;50.752;4.268;2023-02-28T11:12:00;2.30;;;1.58;;
25481;SDS011;13395;50.752;4.268;2023-02-28T11:14:28;2.65;;;1.90;;
25481;SDS011;13395;50.752;4.268;2023-02-28T11:16:57;2.28;;;1.48;;
25481;SDS011;13395;50.752;4.268;2023-02-28T11:19:28;2.83;;;2.15;;
25481;SDS011;13395;50.752;4.268;2023-02-28T11:22:01;2.47;;;1.70;;
25481;SDS011;13395;50.752;4.268;2023-02-28T11:24:30;2.60;;;1.65;;
25481;SDS011;13395;50.752;4.268;2023-02-28T11:26:56;3.60;;;1.70;;
25481;SDS011;13395;50.752;4.268;2023-02-28T11:32:26;2.05;;;1.50;;
25481;SDS011;13395;50.752;4.268;2023-02-28T11:35:34;2.33;;;1.70;;
25481;SDS011;13395;50.752;4.268;2023-02-28T11:37:35;4.38;;;2.78;;
25481;SDS011;13395;50.752;4.268;2023-02-28T11:40:01;4.57;;;2.38;;
25481;SDS011;13395;50.752;4.268;2023-02-28T11:42:37;2.85;;;1.52;;
25481;SDS011;13395;50.752;4.268;2023-02-28T11:48:21;2.05;;;1.55;;
25481;SDS011;13395;50.752;4.268;2023-02-28T11:50:55;3.63;;;2.00;;
25481;SDS011;13395;50.752;4.268;2023-02-28T11:56:37;3.40;;;2.42;;
25481;SDS011;13395;50.752;4.268;2023-02-28T12:09:56;3.72;;;3.13;;
25481;SDS011;13395;50.752;4.268;2023-02-28T12:13:07;3.78;;;3.13;;
25481;SDS011;13395;50.752;4.268;2023-02-28T12:15:46;4.80;;;2.58;;
25481;SDS011;13395;50.752;4.268;2023-02-28T12:18:36;3.35;;;2.60;;
25481;SDS011;13395;50.752;4.268;2023-02-28T12:34:32;5.22;;;2.30;;
25481;SDS011;13395;50.752;4.268;2023-02-28T12:37:02;3.88;;;2.10;;
25481;SDS011;13395;50.752;4.268;2023-02-28T12:39:34;3.50;;;2.20;;
25481;SDS011;13395;50.752;4.268;2023-02-28T12:42:07;3.90;;;2.20;;
25481;SDS011;13395;50.752;4.268;2023-02-28T12:44:49;3.20;;;2.25;;
25481;SDS011;13395;50.752;4.268;2023-02-28T12:47:20;2.38;;;1.90;;
25481;SDS011;13395;50.752;4.268;2023-02-28T12:49:48;3.83;;;2.28;;
25481;SDS011;13395;50.752;4.268;2023-02-28T12:52:20;4.85;;;2.00;;
25481;SDS011;13395;50.752;4.268;2023-02-28T12:54:55;3.60;;;2.28;;
25481;SDS011;13395;50.752;4.268;2023-02-28T12:57:38;3.88;;;2.42;;
25481;SDS011;13395;50.752;4.268;2023-02-28T13:02:51;3.67;;;2.20;;
25481;SDS011;13395;50.752;4.268;2023-02-28T13:11:33;4.00;;;2.40;;
25481;SDS011;13395;50.752;4.268;2023-02-28T13:14:06;3.35;;;2.20;;
25481;SDS011;13395;50.752;4.268;2023-02-28T13:16:51;3.75;;;1.98;;
25481;SDS011;13395;50.752;4.268;2023-02-28T13:19:23;3.92;;;2.20;;
25481;SDS011;13395;50.752;4.268;2023-02-28T13:22:00;2.75;;;2.20;;
25481;SDS011;13395;50.752;4.268;2023-02-28T13:29:40;3.25;;;2.03;;
25481;SDS011;13395;50.752;4.268;2023-02-28T13:34:36;4.28;;;2.67;;
25481;SDS011;13395;50.752;4.268;2023-02-28T13:47:43;3.47;;;2.08;;
25481;SDS011;13395;50.752;4.268;2023-02-28T13:50:35;6.30;;;2.20;;
25481;SDS011;13395;50.752;4.268;2023-02-28T13:58:35;2.80;;;2.28;;
25481;SDS011;13395;50.752;4.268;2023-02-28T14:06:48;3.72;;;2.58;;
25481;SDS011;13395;50.752;4.268;2023-02-28T14:09:27;3.10;;;2.22;;
25481;SDS011;13395;50.752;4.268;2023-02-28T14:18:02;4.95;;;2.53;;
25481;SDS011;13395;50.752;4.268;2023-02-28T14:20:36;3.03;;;2.40;;
25481;SDS011;13395;50.752;4.268;2023-02-28T14:28:13;5.28;;;2.72;;
25481;SDS011;13395;50.752;4.268;2023-02-28T14:31:00;3.40;;;2.60;;
25481;SDS011;13395;50.752;4.268;2023-02-28T14:38:35;3.50;;;2.63;;
25481;SDS011;13395;50.752;4.268;2023-02-28T14:41:11;4.10;;;2.38;;
25481;SDS011;13395;50.752;4.268;2023-02-28T14:43:48;3.13;;;2.28;;
25481;SDS011;13395;50.752;4.268;2023-02-28T14:46:16;3.97;;;2.70;;
25481;SDS011;13395;50.752;4.268;2023-02-28T14:48:44;7.20;;;3.20;;
25481;SDS011;13395;50.752;4.268;2023-02-28T14:51:17;3.22;;;2.60;;
25481;SDS011;13395;50.752;4.268;2023-02-28T14:53:47;3.42;;;2.72;;
25481;SDS011;13395;50.752;4.268;2023-02-28T14:56:20;4.97;;;3.03;;
25481;SDS011;13395;50.752;4.268;2023-02-28T14:58:52;3.90;;;2.70;;
25481;SDS011;13395;50.752;4.268;2023-02-28T15:01:20;6.65;;;2.67;;
25481;SDS011;13395;50.752;4.268;2023-02-28T15:03:47;4.47;;;2.70;;
25481;SDS011;13395;50.752;4.268;2023-02-28T15:06:21;4.47;;;2.53;;
25481;SDS011;13395;50.752;4.268;2023-02-28T15:08:47;5.63;;;3.40;;
25481;SDS011;13395;50.752;4.268;2023-02-28T15:11:31;4.32;;;2.70;;
25481;SDS011;13395;50.752;4.268;2023-02-28T15:13:57;3.88;;;2.95;;
25481;SDS011;13395;50.752;4.268;2023-02-28T15:16:28;6.88;;;2.35;;
25481;SDS011;13395;50.752;4.268;2023-02-28T15:19:07;3.22;;;2.78;;
25481;SDS011;13395;50.752;4.268;2023-02-28T15:21:59;5.40;;;3.50;;
25481;SDS011;13395;50.752;4.268;2023-02-28T15:24:31;5.53;;;3.10;;
25481;SDS011;13395;50.752;4.268;2023-02-28T15:27:00;5.78;;;3.60;;
25481;SDS011;13395;50.752;4.268;2023-02-28T15:29:30;4.00;;;2.80;;
25481;SDS011;13395;50.752;4.268;2023-02-28T15:32:03;4.53;;;3.20;;
25481;SDS011;13395;50.752;4.268;2023-02-28T15:34:35;3.95;;;3.10;;
25481;SDS011;13395;50.752;4.268;2023-02-28T15:37:06;4.18;;;3.42;;
25481;SDS011;13395;50.752;4.268;2023-02-28T15:39:51;8.35;;;3.30;;
25481;SDS011;13395;50.752;4.268;2023-02-28T15:42:18;8.15;;;3.58;;
25481;SDS011;13395;50.752;4.268;2023-02-28T15:44:44;7.75;;;3.65;;
25481;SDS011;13395;50.752;4.268;2023-02-28T15:49:50;5.68;;;3.72;;
25481;SDS011;13395;50.752;4.268;2023-02-28T15:55:18;4.00;;;2.90;;
25481;SDS011;13395;50.752;4.268;2023-02-28T15:57:44;4.28;;;3.30;;
25481;SDS011;13395;50.752;4.268;2023-02-28T16:00:12;5.95;;;3.35;;
25481;SDS011;13395;50.752;4.268;2023-02-28T16:02:45;7.90;;;3.38;;
25481;SDS011;13395;50.752;4.268;2023-02-28T16:07:37;4.80;;;3.33;;
25481;SDS011;13395;50.752;4.268;2023-02-28T16:10:04;5.32;;;3.20;;
25481;SDS011;13395;50.752;4.268;2023-02-28T16:12:33;3.97;;;3.17;;
25481;SDS011;13395;50.752;4.268;2023-02-28T16:15:02;4.35;;;3.10;;
25481;SDS011;13395;50.752;4.268;2023-02-28T16:17:34;4.07;;;3.28;;
25481;SDS011;13395;50.752;4.268;2023-02-28T16:20:05;4.32;;;3.53;;
25481;SDS011;13395;50.752;4.268;2023-02-28T16:23:00;4.18;;;3.67;;
25481;SDS011;13395;50.752;4.268;2023-02-28T16:25:34;6.63;;;4.40;;
25481;SDS011;13395;50.752;4.268;2023-02-28T16:28:01;4.63;;;3.47;;
25481;SDS011;13395;50.752;4.268;2023-02-28T16:30:27;5.88;;;3.90;;
25481;SDS011;13395;50.752;4.268;2023-02-28T16:32:56;5.72;;;3.75;;
25481;SDS011;13395;50.752;4.268;2023-02-28T16:35:22;6.63;;;3.63;;
25481;SDS011;13395;50.752;4.268;2023-02-28T16:37:50;4.35;;;3.75;;
25481;SDS011;13395;50.752;4.268;2023-02-28T16:40:17;5.18;;;3.78;;
25481;SDS011;13395;50.752;4.268;2023-02-28T16:42:46;3.70;;;3.40;;
25481;SDS011;13395;50.752;4.268;2023-02-28T16:45:24;6.28;;;3.38;;
25481;SDS011;13395;50.752;4.268;2023-02-28T16:47:51;4.05;;;2.83;;
25481;SDS011;13395;50.752;4.268;2023-02-28T16:50:19;5.80;;;3.47;;
25481;SDS011;13395;50.752;4.268;2023-02-28T16:52:46;4.85;;;3.28;;
25481;SDS011;13395;50.752;4.268;2023-02-28T16:55:14;4.28;;;3.10;;
25481;SDS011;13395;50.752;4.268;2023-02-28T16:57:40;7.93;;;3.15;;
25481;SDS011;13395;50.752;4.268;2023-02-28T17:00:07;5.95;;;3.40;;
25481;SDS011;13395;50.752;4.268;2023-02-28T17:02:36;5.78;;;3.95;;
25481;SDS011;13395;50.752;4.268;2023-02-28T17:05:01;7.55;;;4.55;;
25481;SDS011;13395;50.752;4.268;2023-02-28T17:07:27;5.82;;;4.72;;
25481;SDS011;13395;50.752;4.268;2023-02-28T17:09:53;6.65;;;4.65;;
25481;SDS011;13395;50.752;4.268;2023-02-28T17:12:18;6.57;;;5.05;;
25481;SDS011;13395;50.752;4.268;2023-02-28T17:14:44;5.88;;;4.78;;
25481;SDS011;13395;50.752;4.268;2023-02-28T17:17:13;5.88;;;3.97;;
25481;SDS011;13395;50.752;4.268;2023-02-28T17:19:44;6.22;;;4.20;;
25481;SDS011;13395;50.752;4.268;2023-02-28T17:22:10;5.50;;;3.83;;
25481;SDS011;13395;50.752;4.268;2023-02-28T17:24:36;5.90;;;3.70;;
25481;SDS011;13395;50.752;4.268;2023-02-28T17:27:02;9.65;;;4.25;;
25481;SDS011;13395;50.752;4.268;2023-02-28T17:29:32;5.28;;;4.00;;
25481;SDS011;13395;50.752;4.268;2023-02-28T17:31:58;5.45;;;3.60;;
25481;SDS011;13395;50.752;4.268;2023-02-28T17:34:23;6.78;;;3.30;;
25481;SDS011;13395;50.752;4.268;2023-02-28T17:36:49;6.40;;;3.30;;
25481;SDS011;13395;50.752;4.268;2023-02-28T17:39:17;4.85;;;3.42;;
25481;SDS011;13395;50.752;4.268;2023-02-28T17:41:49;9.90;;;3.63;;